createdAt,value
2019-05-17T00:00:37.630Z,5.60
2019-05-17T00:03:06.809Z,5.73
2019-05-17T00:05:37.498Z,6.40
2019-05-17T00:08:07.655Z,6.10
2019-05-17T00:10:37.629Z,6.03
2019-05-17T00:13:07.567Z,5.90
2019-05-17T00:15:36.667Z,5.60
2019-05-17T00:18:06.796Z,5.30
2019-05-17T00:20:37.165Z,5.73
2019-05-17T00:23:06.774Z,5.67
2019-05-17T00:25:36.604Z,6.07
2019-05-17T00:28:07.042Z,6.27
2019-05-17T00:30:36.979Z,5.03
2019-05-17T00:33:04.304Z,6.23
2019-05-17T00:35:33.522Z,5.80
2019-05-17T00:38:01.562Z,5.90
2019-05-17T00:40:29.607Z,6.13
2019-05-17T00:42:57.658Z,5.50
2019-05-17T00:45:26.761Z,5.97
2019-05-17T00:47:57.123Z,6.43
2019-05-17T00:50:24.767Z,6.10
2019-05-17T00:52:56.523Z,5.20
2019-05-17T00:55:26.699Z,5.60
2019-05-17T00:57:56.397Z,5.30
2019-05-17T01:00:23.911Z,6.20
2019-05-17T01:02:51.956Z,6.73
2019-05-17T01:05:20.018Z,6.23
2019-05-17T01:07:48.054Z,6.43
2019-05-17T01:10:16.746Z,6.17
2019-05-17T01:12:45.023Z,6.20
2019-05-17T01:15:13.147Z,6.90
2019-05-17T01:17:41.185Z,6.83
2019-05-17T01:20:09.658Z,7.10
2019-05-17T01:22:37.702Z,6.50
2019-05-17T01:25:07.290Z,6.27
2019-05-17T01:27:35.366Z,6.40
2019-05-17T01:30:06.704Z,6.67
2019-05-17T01:32:34.559Z,6.60
2019-05-17T01:35:03.167Z,6.90
2019-05-17T01:37:32.442Z,6.73
2019-05-17T01:40:00.490Z,6.30
2019-05-17T01:42:28.787Z,6.40
2019-05-17T01:44:56.899Z,6.27
2019-05-17T01:47:27.110Z,7.10
2019-05-17T01:49:54.754Z,6.50
2019-05-17T01:52:22.804Z,7.43
2019-05-17T01:54:50.836Z,6.90
2019-05-17T01:57:18.942Z,6.63
2019-05-17T01:59:46.972Z,6.60
2019-05-17T02:02:26.987Z,6.60
2019-05-17T02:04:56.950Z,6.73
2019-05-17T02:07:26.739Z,7.00
2019-05-17T02:09:56.885Z,7.50
2019-05-17T02:12:26.680Z,7.50
2019-05-17T02:14:54.474Z,6.63
2019-05-17T02:17:22.554Z,7.00
2019-05-17T02:19:50.594Z,6.03
2019-05-17T02:22:18.638Z,7.30
2019-05-17T02:24:46.766Z,6.80
2019-05-17T02:27:14.882Z,7.10
2019-05-17T02:29:42.990Z,7.00
2019-05-17T02:32:12.883Z,6.43
2019-05-17T02:34:43.076Z,6.53
2019-05-17T02:37:13.667Z,7.03
2019-05-17T02:39:56.539Z,7.40
2019-05-17T02:42:13.870Z,7.00
2019-05-17T02:44:43.771Z,6.77
2019-05-17T02:47:13.328Z,7.03
2019-05-17T02:49:42.493Z,6.93
2019-05-17T02:52:12.456Z,7.40
2019-05-17T02:54:43.729Z,7.00
2019-05-17T02:57:13.831Z,7.37
2019-05-17T02:59:46.016Z,6.50
2019-05-17T03:02:14.066Z,7.83
2019-05-17T03:04:43.221Z,6.77
2019-05-17T03:07:13.643Z,6.93
2019-05-17T03:09:43.157Z,6.53
2019-05-17T03:12:12.882Z,7.30
2019-05-17T03:14:43.249Z,6.43
2019-05-17T03:17:13.787Z,7.10
2019-05-17T03:19:43.294Z,6.43
2019-05-17T03:22:12.885Z,9.40
2019-05-17T03:24:39.935Z,12.03
2019-05-17T03:27:07.983Z,11.10
2019-05-17T03:29:36.043Z,7.30
2019-05-17T03:32:08.628Z,7.83
2019-05-17T03:34:36.816Z,7.37
2019-05-17T03:37:06.148Z,6.77
2019-05-17T03:39:33.562Z,7.23
2019-05-17T03:42:02.812Z,7.37
2019-05-17T03:44:33.268Z,6.87
2019-05-17T03:47:02.372Z,7.77
2019-05-17T03:49:33.110Z,11.07
2019-05-17T03:52:02.766Z,10.27
2019-05-17T03:54:32.513Z,9.57
2019-05-17T03:57:02.628Z,7.67
2019-05-17T03:59:29.750Z,6.80
2019-05-17T04:01:57.788Z,7.47
2019-05-17T04:04:25.901Z,7.40
2019-05-17T04:06:54.861Z,25.03
2019-05-17T04:09:22.907Z,7.50
2019-05-17T04:11:53.520Z,7.10
2019-05-17T04:14:22.436Z,7.87
2019-05-17T04:16:53.374Z,7.27
2019-05-17T04:19:22.978Z,6.80
2019-05-17T04:21:53.374Z,7.03
2019-05-17T04:24:22.900Z,7.27
2019-05-17T04:26:52.212Z,7.60
2019-05-17T04:29:22.411Z,7.50
2019-05-17T04:31:49.292Z,7.17
2019-05-17T04:34:17.323Z,7.60
2019-05-17T04:36:45.381Z,7.30
2019-05-17T04:39:13.704Z,7.87
2019-05-17T04:41:49.758Z,7.17
2019-05-17T04:44:12.879Z,8.13
2019-05-17T04:46:43.081Z,7.50
2019-05-17T04:49:13.734Z,8.07
2019-05-17T04:51:43.934Z,7.67
2019-05-17T04:54:13.719Z,7.30
2019-05-17T04:56:42.602Z,7.60
2019-05-17T04:59:13.851Z,7.37
2019-05-17T05:01:43.526Z,7.67
2019-05-17T05:04:10.347Z,8.77
2019-05-17T05:06:38.404Z,7.37
2019-05-17T05:09:06.627Z,7.40
2019-05-17T05:11:34.667Z,7.17
2019-05-17T05:14:03.140Z,7.93
2019-05-17T05:16:32.023Z,7.03
2019-05-17T05:19:02.651Z,7.67
2019-05-17T05:21:32.373Z,7.93
2019-05-17T05:23:59.754Z,7.97
2019-05-17T05:26:27.831Z,7.80
2019-05-17T05:28:55.890Z,7.43
2019-05-17T05:31:23.936Z,7.83
2019-05-17T05:33:52.273Z,7.93
2019-05-17T05:36:22.086Z,8.83
2019-05-17T05:38:51.634Z,7.97
2019-05-17T05:41:22.427Z,8.07
2019-05-17T05:43:49.702Z,7.97
2019-05-17T05:46:17.751Z,7.80
2019-05-17T05:48:45.790Z,7.60
2019-05-17T05:51:13.943Z,8.03
2019-05-17T05:53:42.101Z,7.90
2019-05-17T05:56:13.062Z,9.00
2019-05-17T05:58:39.919Z,7.53
2019-05-17T06:01:07.960Z,9.50
2019-05-17T06:03:35.998Z,8.17
2019-05-17T06:06:04.067Z,8.20
2019-05-17T06:08:32.425Z,8.47
2019-05-17T06:11:02.181Z,8.43
2019-05-17T06:13:32.484Z,7.60
2019-05-17T06:16:02.419Z,7.50
2019-05-17T06:18:31.844Z,7.60
2019-05-17T06:21:02.676Z,8.50
2019-05-17T06:23:31.547Z,7.77
2019-05-17T06:26:03.294Z,7.83
2019-05-17T06:28:31.703Z,7.97
2019-05-17T06:30:59.273Z,7.13
2019-05-17T06:33:31.036Z,6.70
2019-05-17T06:35:57.086Z,7.13
2019-05-17T06:38:25.128Z,7.40
2019-05-17T06:40:53.175Z,7.13
2019-05-17T06:43:21.615Z,6.97
2019-05-17T06:45:52.032Z,7.43
2019-05-17T06:48:22.307Z,6.60
2019-05-17T06:50:51.808Z,6.60
2019-05-17T06:53:21.755Z,6.80
2019-05-17T06:55:49.158Z,6.83
2019-05-17T06:58:17.238Z,6.93
2019-05-17T07:00:45.266Z,8.00
2019-05-17T07:03:13.312Z,8.00
2019-05-17T07:05:45.960Z,7.50
2019-05-17T07:08:13.997Z,6.77
2019-05-17T07:10:42.046Z,7.40
2019-05-17T07:13:10.844Z,7.23
2019-05-17T07:15:46.861Z,7.63
2019-05-17T07:18:10.320Z,7.27
2019-05-17T07:20:39.473Z,7.40
2019-05-17T07:23:10.411Z,8.17
2019-05-17T07:25:39.723Z,7.73
2019-05-17T07:28:09.767Z,7.90
2019-05-17T07:30:39.708Z,7.63
2019-05-17T07:33:06.966Z,7.60
2019-05-17T07:35:35.020Z,7.83
2019-05-17T07:38:03.066Z,8.03
2019-05-17T07:40:31.107Z,7.93
2019-05-17T07:43:10.144Z,7.43
2019-05-17T07:45:29.585Z,7.67
2019-05-17T07:48:00.022Z,8.60
2019-05-17T07:50:29.291Z,7.40
2019-05-17T07:52:57.399Z,8.07
2019-05-17T07:55:25.443Z,8.87
2019-05-17T07:57:53.504Z,8.40
2019-05-17T08:00:21.553Z,7.97
2019-05-17T08:02:50.509Z,8.43
2019-05-17T08:05:21.187Z,8.50
2019-05-17T08:07:50.030Z,8.07
2019-05-17T08:10:20.409Z,8.90
2019-05-17T08:12:49.801Z,7.80
2019-05-17T08:15:19.796Z,9.30
2019-05-17T08:17:50.067Z,8.33
2019-05-17T08:20:20.237Z,8.20
2019-05-17T08:22:50.056Z,8.50
2019-05-17T08:25:19.893Z,8.07
2019-05-17T08:27:47.227Z,8.20
2019-05-17T08:30:15.568Z,7.60
2019-05-17T08:32:43.626Z,8.87
2019-05-17T08:35:12.236Z,8.07
2019-05-17T08:37:42.512Z,8.40
2019-05-17T08:40:10.685Z,9.67
2019-05-17T08:42:40.745Z,8.97
2019-05-17T08:45:09.725Z,9.37
2019-05-17T08:47:39.705Z,10.23
2019-05-17T08:50:10.931Z,9.63
2019-05-17T08:52:40.261Z,9.43
2019-05-17T08:55:09.725Z,9.47
2019-05-17T08:57:40.163Z,9.90
2019-05-17T09:00:10.709Z,10.53
2019-05-17T09:02:40.483Z,9.70
2019-05-17T09:05:09.913Z,10.47
2019-05-17T09:07:39.856Z,11.10
2019-05-17T09:10:09.655Z,10.67
2019-05-17T09:12:37.217Z,10.77
2019-05-17T09:15:05.530Z,10.37
2019-05-17T09:17:33.573Z,10.77
2019-05-17T09:20:01.662Z,11.00
2019-05-17T09:22:30.548Z,11.00
2019-05-17T09:24:59.607Z,11.43
2019-05-17T09:27:29.988Z,10.20
2019-05-17T09:29:59.873Z,10.90
2019-05-17T09:32:29.477Z,10.93
2019-05-17T09:34:57.066Z,12.50
2019-05-17T09:37:25.127Z,11.20
2019-05-17T09:39:53.171Z,10.70
2019-05-17T09:42:21.722Z,11.00
2019-05-17T09:44:49.816Z,11.00
2019-05-17T09:47:20.453Z,12.20
2019-05-17T09:49:50.009Z,12.00
2019-05-17T09:52:19.863Z,10.37
2019-05-17T09:54:50.182Z,10.53
2019-05-17T09:57:17.713Z,10.87
2019-05-17T09:59:45.826Z,10.37
2019-05-17T10:02:13.887Z,10.97
2019-05-17T10:04:41.968Z,11.90
2019-05-17T10:07:10.293Z,10.77
2019-05-17T10:09:39.985Z,12.10
2019-05-17T10:12:09.586Z,12.00
2019-05-17T10:14:37.684Z,12.10
2019-05-17T10:17:05.731Z,12.17
2019-05-17T10:19:33.803Z,11.50
2019-05-17T10:22:01.926Z,11.53
2019-05-17T10:24:37.976Z,11.20
2019-05-17T10:26:59.798Z,11.30
2019-05-17T10:29:29.962Z,11.10
2019-05-17T10:31:59.829Z,11.47
2019-05-17T10:34:29.436Z,10.93
2019-05-17T10:36:57.574Z,10.30
2019-05-17T10:39:25.618Z,10.70
2019-05-17T10:41:53.751Z,11.30
2019-05-17T10:44:21.833Z,10.77
2019-05-17T10:46:49.878Z,10.27
2019-05-17T10:49:20.157Z,10.77
2019-05-17T10:51:49.398Z,10.40
2019-05-17T10:54:20.416Z,10.03
2019-05-17T10:56:50.087Z,9.97
2019-05-17T10:59:17.546Z,10.80
2019-05-17T11:01:45.596Z,11.07
2019-05-17T11:04:13.666Z,10.57
2019-05-17T11:06:41.710Z,10.40
2019-05-17T11:09:10.321Z,9.57
2019-05-17T11:11:38.966Z,9.00
2019-05-17T11:14:07.081Z,9.63
2019-05-17T11:16:35.148Z,10.43
2019-05-17T11:19:03.210Z,8.97
2019-05-17T11:21:31.263Z,10.20
2019-05-17T11:23:59.303Z,9.50
2019-05-17T11:26:27.626Z,8.90
2019-05-17T11:28:55.680Z,8.37
2019-05-17T11:31:23.709Z,7.00
2019-05-17T11:33:51.795Z,6.77
2019-05-17T11:36:19.838Z,6.70
2019-05-17T11:38:47.871Z,6.60
2019-05-17T11:41:21.300Z,6.70
2019-05-17T11:43:45.686Z,6.33
2019-05-17T11:46:13.772Z,5.20
2019-05-17T11:48:41.863Z,4.47
2019-05-17T11:51:09.902Z,5.00
2019-05-17T11:53:38.488Z,4.43
2019-05-17T11:56:07.262Z,4.63
2019-05-17T11:58:36.960Z,4.27
2019-05-17T12:01:05.012Z,4.33
2019-05-17T12:03:33.147Z,4.20
2019-05-17T12:06:01.191Z,4.00
2019-05-17T12:08:29.267Z,4.00
2019-05-17T12:10:57.472Z,4.00
2019-05-17T12:13:25.584Z,4.07
2019-05-17T12:15:53.690Z,3.70
2019-05-17T12:18:21.931Z,3.37
2019-05-17T12:20:49.982Z,4.00
2019-05-17T12:23:18.010Z,4.37
2019-05-17T12:25:46.091Z,3.63
2019-05-17T12:28:14.110Z,3.77
2019-05-17T12:30:42.162Z,3.70
2019-05-17T12:33:10.210Z,3.30
2019-05-17T12:35:38.256Z,4.77
2019-05-17T12:38:06.316Z,4.10
2019-05-17T12:40:34.391Z,3.87
2019-05-17T12:43:02.495Z,3.80
2019-05-17T12:45:30.530Z,3.70
2019-05-17T12:47:58.608Z,6.83
2019-05-17T12:50:26.655Z,3.87
2019-05-17T12:52:54.698Z,3.40
2019-05-17T12:55:22.764Z,2.93
2019-05-17T12:57:50.799Z,3.10
2019-05-17T13:00:19.352Z,3.23
2019-05-17T13:02:48.171Z,2.90
2019-05-17T13:05:16.210Z,3.73
2019-05-17T13:07:44.258Z,6.17
2019-05-17T13:10:12.330Z,3.30
2019-05-17T13:12:40.438Z,3.40
2019-05-17T13:15:08.658Z,3.23
2019-05-17T13:17:36.727Z,3.27
2019-05-17T13:20:08.795Z,3.33
2019-05-17T13:22:36.838Z,3.70
2019-05-17T13:25:06.486Z,3.50
2019-05-17T13:27:34.547Z,3.90
2019-05-17T13:30:02.585Z,4.43
2019-05-17T13:32:30.674Z,4.07
2019-05-17T13:34:58.706Z,3.80
2019-05-17T13:37:26.755Z,3.33
2019-05-17T13:39:54.820Z,4.13
2019-05-17T13:42:23.102Z,3.50
2019-05-17T13:44:51.122Z,3.23
2019-05-17T13:47:19.242Z,3.63
2019-05-17T13:49:47.292Z,3.27
2019-05-17T13:52:15.340Z,3.50
2019-05-17T13:54:43.408Z,4.20
2019-05-17T13:57:11.595Z,5.10
2019-05-17T13:59:39.683Z,4.07
2019-05-17T14:02:08.465Z,4.07
2019-05-17T14:04:36.503Z,4.60
2019-05-17T14:07:04.545Z,4.27
2019-05-17T14:09:32.867Z,4.90
2019-05-17T14:12:00.902Z,5.13
2019-05-17T14:14:28.938Z,4.30
2019-05-17T14:16:56.999Z,4.40
2019-05-17T14:19:25.031Z,3.37
2019-05-17T14:21:53.207Z,4.40
2019-05-17T14:24:21.310Z,4.37
2019-05-17T14:26:49.366Z,3.80
2019-05-17T14:29:17.414Z,6.43
2019-05-17T14:31:45.546Z,4.00
2019-05-17T14:34:13.582Z,3.93
2019-05-17T14:36:41.618Z,4.07
2019-05-17T14:39:09.685Z,6.23
2019-05-17T14:41:37.807Z,4.47
2019-05-17T14:44:05.842Z,12.90
2019-05-17T14:46:33.899Z,3.93
2019-05-17T14:49:02.763Z,4.03
2019-05-17T14:51:30.862Z,3.77
2019-05-17T14:53:59.465Z,4.07
2019-05-17T14:56:27.556Z,4.40
2019-05-17T14:58:55.635Z,3.27
2019-05-17T15:01:23.747Z,6.23
2019-05-17T15:03:52.291Z,4.43
2019-05-17T15:06:20.347Z,3.80
2019-05-17T15:08:48.576Z,3.93
2019-05-17T15:11:16.875Z,3.07
2019-05-17T15:13:44.910Z,3.60
2019-05-17T15:16:13.099Z,4.23
2019-05-17T15:18:41.140Z,4.07
2019-05-17T15:21:09.178Z,3.23
2019-05-17T15:23:37.242Z,3.70
2019-05-17T15:26:05.351Z,3.40
2019-05-17T15:28:33.387Z,2.83
2019-05-17T15:31:01.441Z,3.07
2019-05-17T15:33:29.486Z,3.23
2019-05-17T15:35:57.547Z,3.47
2019-05-17T15:38:25.639Z,3.63
2019-05-17T15:40:53.734Z,3.13
2019-05-17T15:43:21.892Z,3.10
2019-05-17T15:45:49.951Z,3.13
2019-05-17T15:48:18.004Z,2.80
2019-05-17T15:50:46.068Z,3.10
2019-05-17T15:53:14.141Z,2.90
2019-05-17T15:55:42.175Z,2.80
2019-05-17T15:58:10.222Z,2.80
2019-05-17T16:00:38.777Z,2.80
2019-05-17T16:03:06.827Z,3.20
2019-05-17T16:05:35.301Z,2.83
2019-05-17T16:08:03.363Z,2.90
2019-05-17T16:10:31.420Z,3.00
2019-05-17T16:13:02.938Z,2.90
2019-05-17T16:15:29.232Z,3.47
2019-05-17T16:17:57.282Z,3.27
2019-05-17T16:20:25.327Z,3.37
2019-05-17T16:22:53.863Z,2.87
2019-05-17T16:25:21.978Z,3.07
2019-05-17T16:27:50.017Z,3.00
2019-05-17T16:30:18.151Z,3.33
2019-05-17T16:32:46.190Z,2.93
2019-05-17T16:35:14.327Z,2.33
2019-05-17T16:37:42.409Z,2.70
2019-05-17T16:40:10.589Z,2.90
2019-05-17T16:42:38.648Z,2.57
2019-05-17T16:45:07.894Z,3.60
2019-05-17T16:47:35.938Z,3.60
2019-05-17T16:50:05.546Z,3.10
2019-05-17T16:52:33.614Z,2.80
2019-05-17T16:55:01.665Z,2.50
2019-05-17T16:57:29.706Z,3.13
2019-05-17T16:59:57.766Z,2.70
2019-05-17T17:02:25.811Z,3.03
2019-05-17T17:04:53.911Z,3.53
2019-05-17T17:07:23.968Z,2.50
2019-05-17T17:09:52.007Z,2.83
2019-05-17T17:12:20.055Z,2.73
2019-05-17T17:14:48.102Z,2.20
2019-05-17T17:17:16.164Z,2.47
2019-05-17T17:19:44.212Z,2.50
2019-05-17T17:22:12.278Z,2.77
2019-05-17T17:24:40.326Z,2.60
2019-05-17T17:27:08.364Z,3.00
2019-05-17T17:29:37.170Z,4.27
2019-05-17T17:32:19.324Z,3.07
2019-05-17T17:34:34.980Z,2.60
2019-05-17T17:37:03.064Z,2.60
2019-05-17T17:39:31.087Z,12.10
2019-05-17T17:41:59.136Z,2.90
2019-05-17T17:44:27.198Z,2.60
2019-05-17T17:46:55.237Z,2.20
2019-05-17T17:49:23.294Z,2.70
2019-05-17T17:51:51.362Z,2.20
2019-05-17T17:54:19.403Z,1.97
2019-05-17T17:56:47.447Z,2.00
2019-05-17T17:59:15.531Z,3.03
2019-05-17T18:01:43.590Z,2.63
2019-05-17T18:04:11.643Z,2.30
2019-05-17T18:06:39.683Z,2.23
2019-05-17T18:09:08.183Z,2.30
2019-05-17T18:11:36.222Z,2.33
2019-05-17T18:14:12.873Z,2.43
2019-05-17T18:16:34.614Z,2.40
2019-05-17T18:19:02.665Z,1.57
2019-05-17T18:21:30.759Z,2.30
2019-05-17T18:23:58.810Z,2.23
2019-05-17T18:26:26.859Z,2.27
2019-05-17T18:28:55.002Z,1.93
2019-05-17T18:31:23.068Z,2.30
2019-05-17T18:33:51.111Z,2.27
2019-05-17T18:36:19.651Z,2.50
2019-05-17T18:38:49.237Z,2.73
2019-05-17T18:41:17.280Z,2.40
2019-05-17T18:43:45.342Z,2.87
2019-05-17T18:46:13.386Z,2.67
2019-05-17T18:48:41.428Z,2.20
2019-05-17T18:51:09.500Z,2.37
2019-05-17T18:53:37.518Z,3.17
2019-05-17T18:56:05.589Z,2.47
2019-05-17T18:58:33.681Z,2.10
2019-05-17T19:01:02.240Z,2.70
2019-05-17T19:03:30.609Z,2.07
2019-05-17T19:05:58.670Z,2.17
2019-05-17T19:08:26.719Z,3.73
2019-05-17T19:10:55.661Z,3.10
2019-05-17T19:13:23.756Z,2.93
2019-05-17T19:15:51.785Z,3.10
2019-05-17T19:18:19.834Z,3.20
2019-05-17T19:20:48.731Z,3.00
2019-05-17T19:23:16.783Z,3.17
2019-05-17T19:25:44.910Z,2.47
2019-05-17T19:28:12.974Z,2.87
2019-05-17T19:30:41.015Z,2.37
2019-05-17T19:33:09.129Z,2.80
2019-05-17T19:35:37.191Z,2.40
2019-05-17T19:38:05.334Z,2.47
2019-05-17T19:40:33.369Z,2.47
2019-05-17T19:43:02.296Z,2.53
2019-05-17T19:45:30.379Z,2.77
2019-05-17T19:47:58.394Z,2.10
2019-05-17T19:50:26.502Z,2.40
2019-05-17T19:52:54.712Z,2.87
2019-05-17T19:55:22.934Z,2.53
2019-05-17T19:57:51.039Z,1.90
2019-05-17T20:00:19.325Z,2.40
2019-05-17T20:02:47.391Z,2.33
2019-05-17T20:05:16.095Z,3.67
2019-05-17T20:07:44.143Z,2.20
2019-05-17T20:10:12.358Z,2.70
2019-05-17T20:12:42.517Z,2.40
2019-05-17T20:15:17.340Z,1.90
2019-05-17T20:17:40.589Z,2.00
2019-05-17T20:20:08.914Z,2.00
2019-05-17T20:22:36.947Z,2.23
2019-05-17T20:25:05.562Z,2.03
2019-05-17T20:27:33.709Z,2.27
2019-05-17T20:30:02.189Z,2.70
2019-05-17T20:32:30.577Z,2.73
2019-05-17T20:34:58.660Z,2.10
2019-05-17T20:37:26.687Z,2.20
2019-05-17T20:39:54.746Z,2.10
2019-05-17T20:42:22.813Z,2.07
2019-05-17T20:44:50.873Z,2.53
2019-05-17T20:47:18.987Z,2.50
2019-05-17T20:49:47.154Z,2.57
2019-05-17T20:52:15.196Z,3.03
2019-05-17T20:54:43.240Z,2.90
2019-05-17T20:57:11.291Z,2.80
2019-05-17T20:59:39.338Z,2.83
2019-05-17T21:02:07.524Z,2.93
2019-05-17T21:04:35.650Z,3.13
2019-05-17T21:07:03.715Z,3.60
2019-05-17T21:09:31.747Z,2.73
2019-05-17T21:11:59.823Z,3.43
2019-05-17T21:14:27.890Z,3.00
2019-05-17T21:16:55.920Z,3.20
2019-05-17T21:19:23.999Z,3.10
2019-05-17T21:21:52.044Z,2.97
2019-05-17T21:24:20.161Z,3.43
2019-05-17T21:26:48.214Z,3.47
2019-05-17T21:29:16.257Z,3.53
2019-05-17T21:31:44.298Z,3.60
2019-05-17T21:34:12.853Z,3.53
2019-05-17T21:36:40.890Z,3.70
2019-05-17T21:39:08.943Z,3.97
2019-05-17T21:41:37.004Z,3.73
2019-05-17T21:44:05.042Z,3.40
2019-05-17T21:46:33.090Z,3.40
2019-05-17T21:49:01.167Z,3.90
2019-05-17T21:51:29.211Z,3.77
2019-05-17T21:53:57.259Z,4.17
2019-05-17T21:56:26.112Z,3.30
2019-05-17T21:58:54.216Z,3.50
2019-05-17T22:01:24.128Z,3.80
2019-05-17T22:03:52.262Z,3.90
2019-05-17T22:06:20.310Z,3.90
2019-05-17T22:08:48.358Z,3.80
2019-05-17T22:11:16.486Z,3.50
2019-05-17T22:13:44.540Z,3.47
2019-05-17T22:16:19.692Z,3.80
2019-05-17T22:18:43.196Z,4.63
2019-05-17T22:21:11.235Z,3.73
2019-05-17T22:23:39.278Z,3.50
2019-05-17T22:26:07.350Z,4.10
2019-05-17T22:28:35.387Z,3.27
2019-05-17T22:31:03.428Z,3.50
2019-05-17T22:33:31.495Z,3.67
2019-05-17T22:35:59.534Z,3.90
2019-05-17T22:38:27.566Z,3.70
2019-05-17T22:40:55.706Z,4.00
2019-05-17T22:43:23.804Z,3.73
2019-05-17T22:45:51.866Z,3.70
2019-05-17T22:48:19.926Z,3.90
2019-05-17T22:50:47.975Z,3.80
2019-05-17T22:53:16.005Z,3.27
2019-05-17T22:55:44.071Z,3.80
2019-05-17T22:58:12.115Z,3.60
2019-05-17T23:00:40.162Z,3.67
2019-05-17T23:03:09.158Z,3.53
2019-05-17T23:05:37.198Z,3.47
2019-05-17T23:08:05.238Z,3.60
2019-05-17T23:10:35.203Z,4.30
2019-05-17T23:13:03.139Z,3.80
2019-05-17T23:15:32.847Z,4.20
2019-05-17T23:18:02.447Z,3.97
2019-05-17T23:20:30.486Z,4.20
2019-05-17T23:22:58.534Z,4.10
2019-05-17T23:25:26.622Z,3.73
2019-05-17T23:27:54.952Z,4.10
2019-05-17T23:30:22.990Z,4.35
2019-05-17T23:32:51.046Z,3.33
2019-05-17T23:35:19.084Z,3.30
2019-05-17T23:37:47.201Z,3.40
2019-05-17T23:40:15.355Z,3.10
2019-05-17T23:42:43.682Z,3.63
2019-05-17T23:45:11.787Z,3.20
2019-05-17T23:47:40.607Z,3.40
2019-05-17T23:50:09.018Z,3.20
2019-05-17T23:52:37.119Z,3.13
2019-05-17T23:55:05.846Z,3.67
2019-05-17T23:57:33.885Z,3.37
